Time;durP1;ratioP1;P1;durP2;ratioP2;P2;SDS_P1;SDS_P2;PMS_P1;PMS_P2;Temp;Humidity;BMP_temperature;BMP_pressure;BME280_temperature;BME280_humidity;BME280_pressure;Samples;Min_cycle;Max_cycle;Signal;HPM_P1;HPM_P2
2022/06/08 00:00:24;;;;;;;6.63;1.65;;;23.30;53.30;;;;;;7391548;19;20445;-86
2022/06/08 00:02:58;;;;;;;11.65;2.42;;;23.30;53.60;;;;;;7371753;19;20022;-84
2022/06/08 00:05:27;;;;;;;10.82;2.53;;;23.30;53.40;;;;;;7367593;19;20086;-84
2022/06/08 00:07:58;;;;;;;11.18;2.15;;;23.40;53.50;;;;;;7371997;19;20011;-84
2022/06/08 00:10:27;;;;;;;;;;;23.40;53.90;;;;;;7371429;19;20458;-84
2022/06/08 00:12:56;;;;;;;12.35;2.28;;;23.40;53.60;;;;;;7372049;19;20520;-83
2022/06/08 00:15:25;;;;;;;14.27;2.28;;;23.40;53.30;;;;;;7390507;19;20360;-84
2022/06/08 00:17:54;;;;;;;10.50;2.05;;;23.30;53.60;;;;;;7371124;19;20026;-85
2022/06/08 00:20:23;;;;;;;6.93;1.80;;;23.40;54.40;;;;;;7369078;19;20010;-86
2022/06/08 00:22:53;;;;;;;13.18;1.70;;;23.40;54.40;;;;;;7372494;19;20021;-86
2022/06/08 00:25:25;;;;;;;12.57;2.20;;;23.20;53.60;;;;;;7371447;19;20011;-86
2022/06/08 00:27:55;;;;;;;12.32;2.17;;;23.20;53.90;;;;;;7370786;19;20468;-87
2022/06/08 00:30:25;;;;;;;14.05;2.60;;;23.30;54.30;;;;;;7390223;19;20457;-87
2022/06/08 00:32:54;;;;;;;9.25;2.30;;;23.30;54.80;;;;;;7371650;19;20028;-86
2022/06/08 00:35:23;;;;;;;9.75;2.00;;;23.30;55.10;;;;;;7370106;19;20253;-85
2022/06/08 00:37:51;;;;;;;16.38;2.60;;;23.30;55.30;;;;;;7369631;19;20097;-84
2022/06/08 00:40:28;;;;;;;9.82;2.22;;;23.30;55.50;;;;;;7368067;19;20604;-85
2022/06/08 00:42:57;;;;;;;13.38;2.25;;;23.30;55.60;;;;;;7369646;19;20014;-85
2022/06/08 00:45:26;;;;;;;9.95;2.92;;;23.30;55.90;;;;;;7391750;19;20504;-86
2022/06/08 00:47:58;;;;;;;10.43;2.20;;;23.30;56.50;;;;;;7368556;19;20043;-85
2022/06/08 00:50:31;;;;;;;15.27;2.42;;;23.30;56.80;;;;;;7370506;19;20018;-86
2022/06/08 00:53:02;;;;;;;12.73;1.92;;;23.20;57.20;;;;;;7371050;19;20048;-86
2022/06/08 00:55:36;;;;;;;15.00;3.05;;;23.20;56.80;;;;;;7369701;19;20021;-85
2022/06/08 00:58:08;;;;;;;7.60;2.00;;;23.10;56.90;;;;;;7371318;19;20043;-87
2022/06/08 01:00:39;;;;;;;10.57;2.40;;;23.10;57.30;;;;;;7391818;19;20018;-85
2022/06/08 01:03:09;;;;;;;9.55;2.40;;;22.90;57.40;;;;;;7371570;19;20018;-86
2022/06/08 01:05:44;;;;;;;11.38;2.20;;;22.90;57.60;;;;;;7371132;19;20094;-86
2022/06/08 01:08:26;;;;;;;9.68;2.20;;;22.80;58.10;;;;;;7371520;19;20033;-85
2022/06/08 01:11:00;;;;;;;10.50;2.40;;;22.80;58.10;;;;;;7373493;19;20417;-85
2022/06/08 01:13:31;;;;;;;9.57;2.50;;;22.80;58.10;;;;;;7372269;19;20089;-85
2022/06/08 01:16:02;;;;;;;9.32;2.25;;;22.70;58.70;;;;;;7373565;19;20025;-85
2022/06/08 01:18:31;;;;;;;14.88;2.35;;;22.80;58.80;;;;;;7394263;19;20018;-86
2022/06/08 01:21:30;;;;;;;10.82;1.92;;;22.80;58.60;;;;;;7372983;19;20482;-86
2022/06/08 01:24:04;;;;;;;12.80;2.45;;;22.70;57.80;;;;;;7372489;19;20199;-87
2022/06/08 01:26:40;;;;;;;13.75;2.72;;;22.70;57.80;;;;;;7371050;19;20114;-87
2022/06/08 01:29:16;;;;;;;15.18;2.55;;;22.70;57.90;;;;;;7378253;19;20018;-87
2022/06/08 01:31:52;;;;;;;12.50;2.50;;;22.60;57.40;;;;;;7377194;19;20121;-85
2022/06/08 01:34:28;;;;;;;16.85;2.70;;;22.60;58.20;;;;;;7368866;19;20018;-85
2022/06/08 01:37:17;;;;;;;13.13;2.42;;;22.70;57.30;;;;;;7377490;19;20031;-85
2022/06/08 01:40:02;;;;;;;12.88;2.35;;;22.70;57.80;;;;;;7392992;19;20015;-85
2022/06/08 01:42:42;;;;;;;11.93;2.30;;;22.70;57.30;;;;;;7403690;19;20362;-85
2022/06/08 01:45:33;;;;;;;12.13;2.28;;;22.70;57.60;;;;;;7381048;19;20014;-85
2022/06/08 01:48:28;;;;;;;18.45;2.90;;;22.70;56.90;;;;;;7378529;19;20018;-85
2022/06/08 01:51:02;;;;;;;12.27;2.92;;;22.50;56.40;;;;;;7376613;19;20473;-86
2022/06/08 01:53:40;;;;;;;16.13;2.88;;;22.50;57.00;;;;;;7370690;19;20336;-86
2022/06/08 01:56:21;;;;;;;14.10;2.40;;;22.40;56.80;;;;;;7371267;19;20035;-86
2022/06/08 01:58:58;;;;;;;10.40;2.45;;;22.40;57.00;;;;;;7369619;19;20014;-86
2022/06/08 02:01:31;;;;;;;14.55;2.25;;;22.50;57.10;;;;;;7369087;19;20091;-86
2022/06/08 02:04:07;;;;;;;12.43;2.70;;;22.50;57.20;;;;;;7371398;19;20050;-85
2022/06/08 02:06:43;;;;;;;9.10;2.13;;;22.50;57.60;;;;;;7396378;19;20121;-85
2022/06/08 02:09:18;;;;;;;16.10;2.55;;;22.50;57.50;;;;;;7373400;19;20015;-85
2022/06/08 02:11:53;;;;;;;11.93;2.83;;;22.40;57.50;;;;;;7369340;19;20090;-85
2022/06/08 02:14:26;;;;;;;13.05;2.42;;;22.40;58.80;;;;;;7370170;19;20096;-84
2022/06/08 02:16:58;;;;;;;10.52;2.45;;;22.40;59.20;;;;;;7368035;19;20446;-85
2022/06/08 02:19:34;;;;;;;15.60;2.92;;;22.40;58.80;;;;;;7371009;19;20018;-84
2022/06/08 02:22:10;;;;;;;13.80;2.85;;;22.40;59.50;;;;;;7371155;19;20018;-85
2022/06/08 02:24:42;;;;;;;13.55;2.50;;;22.30;59.20;;;;;;7392162;19;20452;-86
2022/06/08 02:27:19;;;;;;;13.80;3.15;;;22.20;59.40;;;;;;7368652;19;20371;-86
2022/06/08 02:29:52;;;;;;;15.60;3.20;;;22.10;59.00;;;;;;7375598;19;20742;-86
2022/06/08 02:35:12;;;;;;;12.93;2.40;;;22.00;60.40;;;;;;7375883;19;20610;-86
2022/06/08 02:37:43;;;;;;;9.85;2.42;;;22.00;61.10;;;;;;7376503;19;20453;-85
2022/06/08 02:40:19;;;;;;;15.97;2.80;;;22.00;60.40;;;;;;7373060;19;20329;-85
2022/06/08 02:42:53;;;;;;;13.45;2.50;;;22.00;60.50;;;;;;7375059;19;20275;-85
2022/06/08 02:45:26;;;;;;;14.25;2.70;;;22.00;61.30;;;;;;7396321;19;20023;-85
2022/06/08 02:47:58;;;;;;;12.75;2.75;;;22.00;61.10;;;;;;7372336;19;20106;-85
2022/06/08 02:50:28;;;;;;;14.00;2.83;;;21.90;60.20;;;;;;7373339;19;20010;-85
2022/06/08 02:53:10;;;;;;;12.43;2.83;;;22.00;61.30;;;;;;7374634;19;20033;-86
2022/06/08 02:55:49;;;;;;;11.82;3.05;;;21.90;61.70;;;;;;7374207;19;20014;-86
2022/06/08 02:58:27;;;;;;;14.60;2.95;;;21.90;62.30;;;;;;7375447;19;20103;-84
2022/06/08 03:01:02;;;;;;;12.35;3.63;;;21.90;62.10;;;;;;7370754;19;20018;-85
2022/06/08 03:03:39;;;;;;;14.05;3.53;;;21.90;63.60;;;;;;7392938;19;20061;-86
2022/06/08 03:06:14;;;;;;;16.25;2.90;;;21.90;63.80;;;;;;7373290;19;20018;-86
2022/06/08 03:08:49;;;;;;;14.68;3.15;;;21.90;63.50;;;;;;7370008;19;20052;-86
2022/06/08 03:11:19;;;;;;;13.85;2.45;;;21.90;63.50;;;;;;7372812;19;20014;-85
2022/06/08 03:13:55;;;;;;;15.88;3.65;;;21.90;63.90;;;;;;7374669;19;20621;-85
2022/06/08 03:16:28;;;;;;;14.75;3.17;;;21.90;64.00;;;;;;7370773;19;20086;-86
2022/06/08 03:18:57;;;;;;;12.57;2.80;;;22.00;64.30;;;;;;7373426;19;20018;-86
2022/06/08 03:21:26;;;;;;;15.60;2.92;;;21.90;63.30;;;;;;7395869;19;20082;-87
2022/06/08 03:23:56;;;;;;;12.10;2.85;;;22.00;63.40;;;;;;7373792;19;20039;-87
2022/06/08 03:26:27;;;;;;;11.73;3.25;;;22.00;63.80;;;;;;7374028;19;20472;-87
2022/06/08 03:28:58;;;;;;;10.97;2.57;;;22.00;62.80;;;;;;7373552;19;20519;-87
2022/06/08 03:31:26;;;;;;;23.45;3.72;;;22.00;63.30;;;;;;7376387;19;20681;-86
2022/06/08 03:33:55;;;;;;;14.52;2.97;;;22.00;63.50;;;;;;7375119;19;20043;-85
2022/06/08 03:36:24;;;;;;;9.23;2.45;;;22.00;64.90;;;;;;7395667;19;20018;-86
2022/06/08 03:38:53;;;;;;;18.77;3.35;;;22.00;65.20;;;;;;7373577;19;20010;-85
2022/06/08 03:41:22;;;;;;;12.52;3.05;;;22.00;65.10;;;;;;7371022;19;20086;-86
2022/06/08 03:43:54;;;;;;;9.23;2.80;;;21.90;65.10;;;;;;7374520;19;20098;-86
2022/06/08 03:46:26;;;;;;;9.75;2.95;;;21.90;65.40;;;;;;7369152;19;20014;-86
2022/06/08 03:48:57;;;;;;;13.27;3.28;;;21.80;65.40;;;;;;7367885;19;20082;-86
2022/06/08 03:51:26;;;;;;;13.88;2.97;;;21.80;65.40;;;;;;7390574;19;20015;-85
2022/06/08 03:54:02;;;;;;;15.30;3.42;;;21.80;65.00;;;;;;7369346;19;20018;-85
2022/06/08 03:56:33;;;;;;;13.07;3.13;;;21.80;65.20;;;;;;7375193;19;20442;-85
2022/06/08 03:59:02;;;;;;;20.00;3.65;;;21.70;65.50;;;;;;7380239;19;20086;-85
2022/06/08 04:01:34;;;;;;;12.65;3.47;;;21.70;66.30;;;;;;7372621;19;20014;-85
2022/06/08 04:04:03;;;;;;;11.40;3.10;;;21.70;66.40;;;;;;7373573;19;20082;-85
2022/06/08 04:06:31;;;;;;;15.50;3.53;;;21.70;66.70;;;;;;7390916;19;20481;-85
2022/06/08 04:09:00;;;;;;;13.13;3.83;;;21.70;66.90;;;;;;7370453;19;20015;-84
2022/06/08 04:11:33;;;;;;;17.25;3.72;;;21.70;67.20;;;;;;7370865;19;20576;-84
2022/06/08 04:14:02;;;;;;;14.40;3.53;;;21.60;66.90;;;;;;7372368;19;20018;-85
2022/06/08 04:16:34;;;;;;;13.98;3.55;;;21.60;67.50;;;;;;7370708;19;20022;-85
2022/06/08 04:19:02;;;;;;;;;;;21.60;67.80;;;;;;7371837;19;20370;-86
2022/06/08 04:21:31;;;;;;;15.23;3.55;;;21.70;67.90;;;;;;7391514;19;19918;-85
2022/06/08 04:24:00;;;;;;;11.60;3.13;;;21.60;67.70;;;;;;7371787;19;20022;-85
2022/06/08 04:26:29;;;;;;;20.50;3.53;;;21.60;68.30;;;;;;7371872;19;20018;-84
2022/06/08 04:28:58;;;;;;;15.63;3.70;;;21.60;67.60;;;;;;7373065;19;20043;-85
2022/06/08 04:31:32;;;;;;;17.65;3.60;;;21.50;67.70;;;;;;7372005;19;20022;-84
2022/06/08 04:34:06;;;;;;;15.02;3.38;;;21.50;67.90;;;;;;7368562;19;20425;-82
2022/06/08 04:36:35;;;;;;;12.30;3.25;;;21.50;68.50;;;;;;7389080;19;20124;-83
2022/06/08 04:39:05;;;;;;;18.27;3.42;;;21.50;68.30;;;;;;7370283;19;20090;-83
2022/06/08 04:41:35;;;;;;;9.52;2.85;;;21.50;68.50;;;;;;7371397;19;20021;-79
2022/06/08 04:44:04;;;;;;;132.02;98.55;;;21.50;68.80;;;;;;7369852;19;20014;-79
2022/06/08 04:46:33;;;;;;;60.30;35.15;;;21.50;69.00;;;;;;7372969;19;20014;-82
2022/06/08 04:49:04;;;;;;;46.55;31.55;;;21.50;69.30;;;;;;7370944;19;20026;-84
2022/06/08 04:51:34;;;;;;;45.28;29.48;;;21.40;69.90;;;;;;7395272;19;20336;-85
2022/06/08 04:54:09;;;;;;;13.85;7.40;;;21.40;69.40;;;;;;7373403;19;20038;-84
2022/06/08 04:56:38;;;;;;;17.23;5.88;;;21.40;69.10;;;;;;7373860;19;20349;-83
2022/06/08 04:59:09;;;;;;;11.98;3.45;;;21.40;69.00;;;;;;7370339;19;20019;-82
2022/06/08 05:01:37;;;;;;;8.40;2.73;;;21.40;69.10;;;;;;7368031;19;20079;-79
2022/06/08 05:04:09;;;;;;;9.55;2.90;;;21.40;69.20;;;;;;7365291;19;20026;-78
2022/06/08 05:06:41;;;;;;;71.70;42.30;;;21.20;67.40;;;;;;7386839;19;20098;-77
2022/06/08 05:09:14;;;;;;;32.00;17.17;;;21.10;67.50;;;;;;7362611;19;20106;-82
2022/06/08 05:11:43;;;;;;;21.42;10.93;;;21.10;69.00;;;;;;7366683;19;20502;-76
2022/06/08 05:14:13;;;;;;;84.82;54.20;;;21.10;68.90;;;;;;7367600;19;20037;-76
2022/06/08 05:16:42;;;;;;;23.52;12.30;;;21.10;69.70;;;;;;7366547;19;20062;-76
2022/06/08 05:19:13;;;;;;;13.25;4.90;;;21.10;69.70;;;;;;7366368;19;20018;-76
2022/06/08 05:21:42;;;;;;;9.43;4.10;;;21.10;68.70;;;;;;7387779;19;20478;-76
2022/06/08 05:24:11;;;;;;;9.00;2.53;;;21.10;69.00;;;;;;7367871;19;20034;-78
2022/06/08 05:26:40;;;;;;;6.07;2.20;;;21.10;69.20;;;;;;7368954;19;20018;-76
2022/06/08 05:29:09;;;;;;;3.97;2.13;;;21.10;71.20;;;;;;7365587;19;20023;-78
2022/06/08 05:31:38;;;;;;;40.30;24.95;;;21.10;69.90;;;;;;7367563;19;20030;-78
2022/06/08 05:34:07;;;;;;;11.45;6.10;;;21.20;69.60;;;;;;7368516;19;20552;-80
2022/06/08 05:36:38;;;;;;;8.73;2.88;;;21.20;69.30;;;;;;7387938;19;20028;-79
2022/06/08 05:39:06;;;;;;;;;;;21.20;69.60;;;;;;7368468;19;20094;-78
2022/06/08 05:41:35;;;;;;;7.45;2.60;;;21.30;69.70;;;;;;7364884;19;19929;-79
2022/06/08 05:44:04;;;;;;;3.63;2.10;;;21.20;69.40;;;;;;7366807;19;20383;-78
2022/06/08 05:46:36;;;;;;;8.45;2.35;;;21.30;69.50;;;;;;7367427;19;20029;-78
2022/06/08 05:49:05;;;;;;;6.13;2.22;;;21.20;69.40;;;;;;7366847;19;20090;-79
2022/06/08 05:51:33;;;;;;;4.65;2.10;;;21.20;69.20;;;;;;7389111;19;20026;-78
2022/06/08 05:54:06;;;;;;;6.28;2.15;;;21.20;69.90;;;;;;7365444;19;20106;-79
2022/06/08 05:56:35;;;;;;;10.00;2.25;;;21.20;70.40;;;;;;7366353;19;20478;-78
2022/06/08 05:59:04;;;;;;;5.30;2.00;;;21.20;70.50;;;;;;7366822;19;20444;-78
2022/06/08 06:01:33;;;;;;;5.25;2.00;;;21.20;71.10;;;;;;7367269;19;20400;-78
2022/06/08 06:04:03;;;;;;;6.00;2.00;;;21.20;70.50;;;;;;7371039;19;20029;-78
2022/06/08 06:06:32;;;;;;;19.65;11.20;;;21.20;70.70;;;;;;7395015;19;20039;-78
2022/06/08 06:09:00;;;;;;;10.43;7.03;;;21.20;71.00;;;;;;7371824;19;20014;-80
2022/06/08 06:11:32;;;;;;;5.90;1.80;;;21.20;70.20;;;;;;7372557;19;20078;-79
2022/06/08 06:14:01;;;;;;;4.07;1.63;;;21.20;70.00;;;;;;7374306;19;20018;-78
2022/06/08 06:16:30;;;;;;;2.53;1.23;;;21.20;69.50;;;;;;7374531;19;20048;-78
2022/06/08 06:18:59;;;;;;;3.88;1.77;;;21.10;68.80;;;;;;7373739;19;20038;-78
2022/06/08 06:21:27;;;;;;;13.52;7.18;;;21.10;69.90;;;;;;7395371;19;20056;-78
2022/06/08 06:23:57;;;;;;;8.18;3.75;;;20.90;69.40;;;;;;7370861;19;20015;-79
2022/06/08 06:26:27;;;;;;;6.53;1.60;;;20.90;71.20;;;;;;7373115;19;20082;-78
2022/06/08 06:28:58;;;;;;;2.42;1.50;;;21.00;72.20;;;;;;7371646;19;20327;-78
2022/06/08 06:31:27;;;;;;;;;;;20.90;70.50;;;;;;7370512;19;20097;-79
2022/06/08 06:33:56;;;;;;;3.33;1.42;;;21.00;71.60;;;;;;7369317;19;20238;-78
2022/06/08 06:36:25;;;;;;;7.22;1.83;;;20.90;70.50;;;;;;7393234;19;20014;-78
2022/06/08 06:38:54;;;;;;;4.55;1.33;;;20.80;70.70;;;;;;7371817;19;20437;-77
2022/06/08 06:41:23;;;;;;;2.03;1.20;;;20.80;70.90;;;;;;7371846;19;20096;-78
2022/06/08 06:43:52;;;;;;;2.80;1.38;;;20.70;71.30;;;;;;7372708;19;20105;-78
2022/06/08 06:46:23;;;;;;;2.75;1.35;;;20.70;71.70;;;;;;7371640;19;20022;-79
2022/06/08 06:48:51;;;;;;;;;;;20.70;71.80;;;;;;7372986;19;20018;-78
2022/06/08 06:51:21;;;;;;;3.15;1.10;;;20.80;71.50;;;;;;7390028;19;19927;-79
2022/06/08 06:53:50;;;;;;;4.85;1.70;;;20.80;71.90;;;;;;7371412;19;20025;-78
2022/06/08 06:56:19;;;;;;;1.73;1.10;;;20.80;72.10;;;;;;7371717;19;20028;-78
2022/06/08 06:58:48;;;;;;;3.90;1.60;;;20.80;72.30;;;;;;7372952;19;20019;-78
2022/06/08 07:01:18;;;;;;;4.57;1.58;;;20.80;72.20;;;;;;7372594;19;20410;-78
2022/06/08 07:03:49;;;;;;;3.58;1.58;;;20.80;71.30;;;;;;7385502;19;20011;-77
2022/06/08 07:06:18;;;;;;;5.88;1.70;;;20.80;72.80;;;;;;7394880;19;20019;-77
2022/06/08 07:08:47;;;;;;;5.60;1.90;;;20.90;71.60;;;;;;7370804;19;20075;-78
2022/06/08 07:13:59;;;;;;;4.72;1.63;;;20.80;71.50;;;;;;7372964;19;20015;-78
2022/06/08 07:16:28;;;;;;;4.47;1.70;;;20.60;72.00;;;;;;7372674;19;20494;-78
2022/06/08 07:18:59;;;;;;;15.95;10.27;;;20.60;72.40;;;;;;7372154;19;20102;-79
2022/06/08 07:21:28;;;;;;;;;;;20.60;72.80;;;;;;7392943;19;20110;-78
2022/06/08 07:23:57;;;;;;;6.30;1.35;;;20.70;73.80;;;;;;7371300;19;19915;-78
2022/06/08 07:26:28;;;;;;;2.30;0.88;;;20.70;74.10;;;;;;7370821;19;20025;-78
2022/06/08 07:28:56;;;;;;;3.58;1.30;;;20.80;74.20;;;;;;7370467;19;20781;-78
2022/06/08 07:31:27;;;;;;;2.53;1.00;;;20.80;73.00;;;;;;7372006;19;20010;-79
2022/06/08 07:33:58;;;;;;;3.08;1.40;;;20.80;72.10;;;;;;7369167;19;20094;-78
2022/06/08 07:36:27;;;;;;;3.33;0.95;;;20.80;73.00;;;;;;7391424;19;20685;-78
2022/06/08 07:38:56;;;;;;;2.45;1.00;;;20.70;72.20;;;;;;7370936;19;20013;-78
2022/06/08 07:41:25;;;;;;;2.28;1.10;;;20.60;72.40;;;;;;7371538;19;20027;-78
2022/06/08 07:43:54;;;;;;;1.50;0.80;;;20.70;73.80;;;;;;7371491;19;20011;-78
2022/06/08 07:46:23;;;;;;;2.08;0.75;;;20.80;74.70;;;;;;7369139;19;20018;-78
2022/06/08 07:51:39;;;;;;;1.25;0.70;;;21.00;73.20;;;;;;7394640;19;20055;-78
2022/06/08 07:54:07;;;;;;;5.13;1.75;;;21.00;74.00;;;;;;7371378;19;20572;-78
2022/06/08 07:56:36;;;;;;;8.63;5.97;;;21.20;74.00;;;;;;7371302;19;20137;-79
2022/06/08 07:59:05;;;;;;;1.40;1.20;;;21.40;75.40;;;;;;7370772;19;20501;-79
2022/06/08 08:01:34;;;;;;;1.52;0.93;;;21.40;74.30;;;;;;7371432;19;20007;-79
2022/06/08 08:04:03;;;;;;;2.00;0.80;;;21.60;74.60;;;;;;7371000;19;20018;-79
2022/06/08 08:06:34;;;;;;;1.95;0.80;;;21.70;74.70;;;;;;7392241;19;20018;-79
2022/06/08 08:09:03;;;;;;;;;;;21.70;72.60;;;;;;7370182;19;20018;-79
2022/06/08 08:11:32;;;;;;;0.68;0.65;;;21.80;73.10;;;;;;7373147;19;19919;-79
2022/06/08 08:14:00;;;;;;;1.88;0.73;;;21.80;73.60;;;;;;7374340;19;20014;-79
2022/06/08 08:16:29;;;;;;;1.40;0.70;;;21.80;74.40;;;;;;7374699;19;20010;-79
2022/06/08 08:18:58;;;;;;;4.15;0.77;;;22.00;73.60;;;;;;7373890;19;20013;-79
2022/06/08 08:21:27;;;;;;;1.60;0.77;;;22.10;74.80;;;;;;7392950;19;20010;-79
2022/06/08 08:23:59;;;;;;;1.90;0.65;;;22.20;74.00;;;;;;7370970;19;20007;-79
2022/06/08 08:26:28;;;;;;;0.98;0.47;;;22.20;68.70;;;;;;7370501;19;20017;-78
2022/06/08 08:28:57;;;;;;;0.77;0.60;;;21.80;67.70;;;;;;7370310;19;20572;-79
2022/06/08 08:31:26;;;;;;;1.65;0.60;;;21.60;69.60;;;;;;7370337;19;20006;-79
2022/06/08 08:33:55;;;;;;;2.05;0.70;;;21.60;69.70;;;;;;7372038;19;20028;-79
2022/06/08 08:36:24;;;;;;;0.65;0.60;;;21.50;69.50;;;;;;7393117;19;20737;-79
2022/06/08 08:38:53;;;;;;;2.95;0.93;;;21.50;70.00;;;;;;7368399;19;20425;-79
2022/06/08 08:44:34;;;;;;;1.30;0.70;;;21.40;72.20;;;;;;7371628;19;20023;-79
2022/06/08 08:47:11;;;;;;;0.70;0.70;;;21.20;71.80;;;;;;7371761;19;20011;-78
2022/06/08 08:49:46;;;;;;;1.10;0.98;;;21.20;72.10;;;;;;7370702;19;20026;-78
2022/06/08 08:52:24;;;;;;;1.15;1.00;;;21.20;71.40;;;;;;7368766;19;20038;-78
2022/06/08 08:54:58;;;;;;;1.35;0.90;;;21.20;72.60;;;;;;7366235;19;20052;-78
2022/06/08 08:57:36;;;;;;;0.90;0.90;;;21.30;73.20;;;;;;7390803;19;20015;-78
2022/06/08 09:00:19;;;;;;;1.40;1.25;;;21.30;72.30;;;;;;7367890;19;20025;-78
2022/06/08 09:05:32;;;;;;;1.20;1.10;;;21.40;72.70;;;;;;7370298;19;20019;-78
2022/06/08 09:08:01;;;;;;;1.85;0.90;;;21.40;71.30;;;;;;7369230;19;20015;-79
2022/06/08 09:10:30;;;;;;;0.95;0.90;;;21.20;71.60;;;;;;7369019;19;20014;-79
2022/06/08 09:13:05;;;;;;;5.13;1.30;;;21.30;71.80;;;;;;7367590;19;20334;-79
2022/06/08 09:15:48;;;;;;;1.90;1.10;;;21.30;70.80;;;;;;7390065;19;20022;-79
2022/06/08 09:18:22;;;;;;;2.55;1.30;;;21.30;72.30;;;;;;7366758;19;20599;-79
2022/06/08 09:20:51;;;;;;;1.85;1.40;;;21.20;71.50;;;;;;7368327;19;20011;-77
2022/06/08 09:23:29;;;;;;;1.52;1.10;;;21.50;72.60;;;;;;7368439;19;20078;-78
2022/06/08 09:26:10;;;;;;;4.95;1.33;;;21.60;72.90;;;;;;7368341;19;20014;-77
2022/06/08 09:28:42;;;;;;;0.90;0.90;;;21.60;71.60;;;;;;7368380;19;20125;-79
2022/06/08 09:31:27;;;;;;;1.65;1.40;;;21.80;72.50;;;;;;7365831;19;20014;-78
2022/06/08 09:34:13;;;;;;;1.15;1.05;;;21.90;71.40;;;;;;7369041;19;20363;-78
2022/06/08 09:36:42;;;;;;;4.10;0.95;;;21.90;69.20;;;;;;7386931;19;20019;-78
2022/06/08 09:39:14;;;;;;;0.73;0.70;;;22.00;71.30;;;;;;7372860;19;20022;-78
2022/06/08 09:41:50;;;;;;;0.50;0.50;;;22.10;70.70;;;;;;7374709;19;20093;-78
2022/06/08 09:44:29;;;;;;;0.73;0.60;;;22.00;69.40;;;;;;7374933;19;20013;-78
2022/06/08 09:52:55;;;;;;;1.17;0.55;;;21.80;68.40;;;;;;7371565;19;20015;-79
2022/06/08 09:55:32;;;;;;;2.03;0.55;;;22.10;70.30;;;;;;7372369;19;20018;-80
2022/06/08 09:58:12;;;;;;;1.40;0.50;;;22.20;69.90;;;;;;7371936;19;20031;-78
2022/06/08 10:00:53;;;;;;;1.33;0.60;;;22.30;67.50;;;;;;7397987;19;20023;-81
2022/06/08 10:03:41;;;;;;;4.32;0.73;;;22.30;66.50;;;;;;7372991;19;20021;-79
2022/06/08 10:06:23;;;;;;;0.70;0.50;;;22.20;65.30;;;;;;7372095;19;20143;-80
2022/06/08 10:09:04;;;;;;;3.38;0.50;;;22.20;67.20;;;;;;7376839;19;20032;-79
2022/06/08 10:11:42;;;;;;;0.50;0.47;;;22.20;67.10;;;;;;7372416;19;20053;-79
2022/06/08 10:14:21;;;;;;;3.20;0.60;;;22.30;66.50;;;;;;7370521;19;20023;-79
2022/06/08 10:16:58;;;;;;;9.93;0.60;;;22.50;66.30;;;;;;7371986;19;20070;-80
2022/06/08 10:19:37;;;;;;;0.45;0.45;;;22.40;67.40;;;;;;7371688;19;20018;-79
2022/06/08 10:22:08;;;;;;;1.48;0.57;;;22.30;65.80;;;;;;7372247;19;20376;-80
2022/06/08 10:24:47;;;;;;;0.75;0.70;;;22.50;67.70;;;;;;7392002;19;20010;-80
2022/06/08 10:27:20;;;;;;;1.10;0.40;;;22.40;63.70;;;;;;7372362;19;20035;-79
2022/06/08 10:29:59;;;;;;;0.63;0.47;;;22.40;62.80;;;;;;7371553;19;20018;-80
2022/06/08 10:32:35;;;;;;;1.30;0.60;;;22.10;63.40;;;;;;7373601;19;20010;-80
2022/06/08 10:35:15;;;;;;;2.30;0.70;;;22.50;64.70;;;;;;7374931;19;20341;-80
2022/06/08 10:37:45;;;;;;;3.53;0.40;;;22.40;63.60;;;;;;7376287;19;20011;-80
2022/06/08 10:40:23;;;;;;;3.72;0.50;;;22.60;60.80;;;;;;7375072;19;20017;-80
2022/06/08 10:42:54;;;;;;;1.30;0.60;;;22.60;61.30;;;;;;7376235;19;20327;-80
2022/06/08 10:45:45;;;;;;;3.33;0.80;;;22.80;61.90;;;;;;7394087;19;20805;-80
2022/06/08 10:48:38;;;;;;;0.43;0.40;;;22.80;60.20;;;;;;7374874;19;20031;-79
2022/06/08 10:51:39;;;;;;;2.05;0.70;;;22.80;60.20;;;;;;7372793;19;20018;-80
2022/06/08 10:57:47;;;;;;;6.40;1.67;;;22.50;61.30;;;;;;7377676;19;20010;-79
2022/06/08 11:00:51;;;;;;;4.35;0.98;;;22.20;62.40;;;;;;7383520;19;20383;-80
2022/06/08 11:03:50;;;;;;;3.38;1.33;;;22.10;63.40;;;;;;7378859;19;20425;-80
2022/06/08 11:06:57;;;;;;;5.03;1.60;;;22.10;64.20;;;;;;7382627;19;20010;-80
2022/06/08 11:09:54;;;;;;;5.45;1.80;;;22.10;64.00;;;;;;7385056;19;20429;-79
2022/06/08 11:12:36;;;;;;;8.80;2.63;;;22.00;64.20;;;;;;7389385;19;20051;-80
2022/06/08 11:15:13;;;;;;;8.95;1.48;;;22.20;65.20;;;;;;7403443;19;20019;-80
2022/06/08 11:17:49;;;;;;;8.02;1.75;;;22.50;65.00;;;;;;7393073;19;20027;-80
2022/06/08 11:20:24;;;;;;;6.70;1.65;;;22.70;64.50;;;;;;7399833;19;20046;-80
2022/06/08 11:22:57;;;;;;;8.45;1.88;;;22.70;63.30;;;;;;7407194;19;20024;-79
2022/06/08 11:25:32;;;;;;;4.85;1.45;;;22.70;63.40;;;;;;7404060;19;20018;-79
2022/06/08 11:28:39;;;;;;;9.02;2.05;;;22.50;62.70;;;;;;7404052;19;20006;-79
2022/06/08 11:31:12;;;;;;;7.05;2.55;;;22.70;62.50;;;;;;7400204;19;19995;-79
2022/06/08 11:34:10;;;;;;;7.63;1.80;;;22.80;62.30;;;;;;7431107;19;20011;-79
2022/06/08 11:37:05;;;;;;;7.63;2.67;;;22.70;61.50;;;;;;7399332;19;20018;-79
2022/06/08 11:39:40;;;;;;;2.75;1.45;;;22.70;61.10;;;;;;7391854;19;20014;-79
2022/06/08 11:42:24;;;;;;;6.43;1.67;;;22.60;59.70;;;;;;7392412;19;20033;-79
2022/06/08 11:44:58;;;;;;;8.15;1.40;;;22.60;60.40;;;;;;7371124;19;20081;-80
2022/06/08 11:47:32;;;;;;;8.15;1.60;;;22.70;59.70;;;;;;7373529;19;20057;-79
2022/06/08 11:50:04;;;;;;;5.80;1.73;;;23.00;59.00;;;;;;7391935;19;20015;-80
2022/06/08 11:52:39;;;;;;;5.40;1.60;;;22.80;58.40;;;;;;7389855;19;20344;-80
2022/06/08 11:55:20;;;;;;;4.07;1.35;;;22.60;59.00;;;;;;7393910;19;20118;-81
2022/06/08 11:57:57;;;;;;;9.70;1.50;;;22.50;59.00;;;;;;7389736;19;20015;-80
2022/06/08 12:00:34;;;;;;;5.82;1.50;;;22.20;57.90;;;;;;7393378;19;20580;-81
2022/06/08 12:03:18;;;;;;;4.00;1.58;;;22.10;58.60;;;;;;7373464;19;20015;-79
2022/06/08 12:05:53;;;;;;;11.23;1.88;;;22.00;58.40;;;;;;7372550;19;20034;-79
2022/06/08 12:08:31;;;;;;;4.72;1.60;;;21.90;59.10;;;;;;7376746;19;20638;-79
2022/06/08 12:11:05;;;;;;;7.03;1.83;;;22.20;59.70;;;;;;7371822;19;20007;-79
2022/06/08 12:13:37;;;;;;;5.72;1.83;;;22.30;57.90;;;;;;7372933;19;20020;-79
2022/06/08 12:16:29;;;;;;;10.82;1.55;;;22.30;56.20;;;;;;7371959;19;20042;-79
2022/06/08 12:19:05;;;;;;;9.15;1.85;;;22.10;56.20;;;;;;7373466;19;20036;-80
2022/06/08 12:21:38;;;;;;;3.63;1.38;;;22.20;56.20;;;;;;7392128;19;20022;-79
2022/06/08 12:24:39;;;;;;;6.70;1.40;;;22.50;56.50;;;;;;7370436;19;20015;-80
2022/06/08 12:27:23;;;;;;;8.43;1.30;;;22.60;55.20;;;;;;7372515;19;20013;-81
2022/06/08 12:29:59;;;;;;;4.80;1.50;;;22.60;54.40;;;;;;7371684;19;20038;-80
2022/06/08 12:32:38;;;;;;;4.22;1.63;;;22.50;54.10;;;;;;7370306;19;20078;-80
2022/06/08 12:35:30;;;;;;;7.13;1.75;;;22.60;55.50;;;;;;7370357;19;20513;-80
2022/06/08 12:38:17;;;;;;;12.63;1.50;;;22.70;54.30;;;;;;7370263;19;20014;-80
2022/06/08 12:41:09;;;;;;;3.42;1.20;;;22.60;54.60;;;;;;7370377;19;20018;-80
2022/06/08 12:43:46;;;;;;;4.88;1.15;;;22.50;55.40;;;;;;7371816;19;20018;-80
2022/06/08 12:46:41;;;;;;;9.77;1.55;;;22.60;53.10;;;;;;7368584;19;20129;-80
2022/06/08 12:49:20;;;;;;;13.57;2.20;;;22.80;53.10;;;;;;7371079;19;20014;-81
2022/06/08 12:52:02;;;;;;;9.52;1.80;;;22.90;52.20;;;;;;7375022;19;20312;-80
2022/06/08 12:54:34;;;;;;;6.32;1.58;;;22.80;52.20;;;;;;7392198;19;20025;-80
2022/06/08 12:57:14;;;;;;;5.13;1.33;;;22.80;51.50;;;;;;7368675;19;20023;-80
2022/06/08 12:59:45;;;;;;;5.97;1.25;;;22.90;51.50;;;;;;7369453;19;20018;-80
2022/06/08 13:02:16;;;;;;;4.10;1.30;;;22.90;51.60;;;;;;7369364;19;20022;-80
2022/06/08 13:04:45;;;;;;;7.10;1.40;;;23.00;51.60;;;;;;7367469;19;20086;-80
2022/06/08 13:07:16;;;;;;;6.75;1.58;;;23.20;51.50;;;;;;7370391;19;20259;-80
2022/06/08 13:09:47;;;;;;;8.68;1.35;;;23.40;51.30;;;;;;7392594;19;20018;-80
2022/06/08 13:12:23;;;;;;;6.40;1.30;;;23.40;51.60;;;;;;7366322;19;20014;-80
2022/06/08 13:14:52;;;;;;;5.55;1.55;;;23.20;50.90;;;;;;7369508;19;20072;-80
2022/06/08 13:17:21;;;;;;;4.93;1.65;;;23.40;50.70;;;;;;7373050;19;20013;-80
2022/06/08 13:19:50;;;;;;;5.80;1.40;;;23.50;51.70;;;;;;7370035;19;20082;-80
2022/06/08 13:22:20;;;;;;;7.30;1.70;;;23.60;51.10;;;;;;7367308;19;20038;-80
2022/06/08 13:24:49;;;;;;;3.58;1.20;;;23.70;50.40;;;;;;7375801;19;20054;-80
2022/06/08 13:27:20;;;;;;;5.00;1.45;;;23.70;50.60;;;;;;7391578;19;20025;-80
2022/06/08 13:29:49;;;;;;;10.63;1.50;;;23.70;51.10;;;;;;7370978;19;20977;-79
2022/06/08 13:32:20;;;;;;;3.25;1.08;;;23.80;51.60;;;;;;7369422;19;20657;-80
2022/06/08 13:34:50;;;;;;;6.45;1.67;;;23.80;50.20;;;;;;7370063;19;20011;-80
2022/06/08 13:37:25;;;;;;;3.03;1.15;;;23.70;49.70;;;;;;7371407;19;20078;-80
2022/06/08 13:39:55;;;;;;;4.65;1.58;;;23.50;49.80;;;;;;7369470;19;20025;-80
2022/06/08 13:42:27;;;;;;;6.32;1.55;;;23.50;50.20;;;;;;7388191;19;20039;-80